Time;durP1;ratioP1;P1;durP2;ratioP2;P2;SDS_P1;SDS_P2;PMS_P1;PMS_P2;Temp;Humidity;BMP_temperature;BMP_pressure;BME280_temperature;BME280_humidity;BME280_pressure;Samples;Min_cycle;Max_cycle;Signal;HPM_P1;HPM_P2
2022/11/06 00:04:17;;;;;;;;;;;;;;;16.83;47.28;96073.59;10539364;28;1104;-52
2022/11/06 00:09:18;;;;;;;;;;;;;;;16.86;47.04;96080.94;10529500;28;1939;-51
2022/11/06 00:14:21;;;;;;;;;;;;;;;16.84;47.18;96072.53;10529791;28;1113;-52
2022/11/06 00:19:22;;;;;;;;;;;;;;;16.83;47.14;96069.16;10530498;28;1713;-51
2022/11/06 00:24:22;;;;;;;;;;;;;;;16.81;47.13;96068.59;10538363;28;1220;-51
2022/11/06 00:29:22;;;;;;;;;;;;;;;16.81;47.39;96062.56;10538011;28;1969;-51
2022/11/06 00:34:22;;;;;;;;;;;;;;;16.81;47.35;96052.09;10542835;28;1183;-48
2022/11/06 00:39:23;;;;;;;;;;;;;;;16.83;47.10;96058.66;10531377;28;1638;-51
2022/11/06 00:44:23;;;;;;;;;;;;;;;16.82;47.15;96048.41;10549745;28;1187;-51
2022/11/06 00:49:23;;;;;;;;;;;;;;;16.86;47.08;96052.94;10538733;28;1972;-51
2022/11/06 00:54:23;;;;;;;;;;;;;;;16.80;47.13;96051.28;10545129;28;1032;-49
2022/11/06 00:59:24;;;;;;;;;;;;;;;16.81;47.32;96052.09;10535151;28;1600;-50
2022/11/06 01:04:24;;;;;;;;;;;;;;;16.80;47.20;96058.34;10535611;28;1492;-51
2022/11/06 01:09:25;;;;;;;;;;;;;;;16.82;47.08;96061.50;10534473;28;1906;-53
2022/11/06 01:14:26;;;;;;;;;;;;;;;16.82;47.12;96057.06;10537124;28;1116;-51
2022/11/06 01:19:26;;;;;;;;;;;;;;;16.83;47.21;96052.63;10531619;28;1834;-53
2022/11/06 01:24:26;;;;;;;;;;;;;;;16.79;47.17;96039.25;10535085;28;1639;-49
2022/11/06 01:29:27;;;;;;;;;;;;;;;16.78;47.25;96039.47;10536325;28;1967;-50
2022/11/06 01:34:27;;;;;;;;;;;;;;;16.81;47.19;96025.91;10532672;28;1424;-49
2022/11/06 01:39:28;;;;;;;;;;;;;;;16.82;47.08;96030.09;10532237;28;1509;-53
2022/11/06 01:44:34;;;;;;;;;;;;;;;16.79;47.06;96025.34;10534315;28;1147;-52
2022/11/06 01:49:35;;;;;;;;;;;;;;;16.78;47.17;96014.09;10529316;28;1975;-52
2022/11/06 01:54:36;;;;;;;;;;;;;;;16.79;47.09;96015.69;10539137;28;1202;-52
2022/11/06 01:59:38;;;;;;;;;;;;;;;16.79;47.10;96014.88;10532184;28;1420;-52
2022/11/06 02:04:42;;;;;;;;;;;;;;;16.81;47.01;96010.19;10534095;28;1019;-47
2022/11/06 02:09:42;;;;;;;;;;;;;;;16.78;47.03;96013.28;10533334;28;1985;-53
2022/11/06 02:15:01;;;;;;;;;;;;;;;16.79;47.09;96017.50;10535364;28;1112;-53
2022/11/06 02:20:20;;;;;;;;;;;;;;;16.82;46.91;96006.53;10533855;28;1611;-51
2022/11/06 02:25:40;;;;;;;;;;;;;;;16.78;47.08;96006.22;10491435;28;1971;-51
2022/11/06 02:30:40;;;;;;;;;;;;;;;16.79;47.13;96001.78;10531801;28;1237;-53
2022/11/06 02:35:42;;;;;;;;;;;;;;;16.76;47.07;95995.22;10534656;28;1480;-52
2022/11/06 02:40:44;;;;;;;;;;;;;;;16.79;46.89;95988.72;10530579;28;1465;-49
2022/11/06 02:45:52;;;;;;;;;;;;;;;16.77;47.08;95994.19;10533386;28;1906;-51
2022/11/06 02:50:52;;;;;;;;;;;;;;;16.79;47.00;95988.72;10539315;28;1678;-52
2022/11/06 02:55:54;;;;;;;;;;;;;;;16.78;46.93;95980.06;10540737;28;847;-52
2022/11/06 03:01:00;;;;;;;;;;;;;;;16.80;46.84;95966.72;10539700;28;1663;-52
2022/11/06 03:06:00;;;;;;;;;;;;;;;16.75;47.05;95969.28;10535780;28;1974;-52
2022/11/06 03:11:19;;;;;;;;;;;;;;;16.78;46.92;95974.03;10537371;28;1563;-53
2022/11/06 03:16:25;;;;;;;;;;;;;;;16.78;46.87;95974.81;10545960;28;1627;-52
2022/11/06 03:21:27;;;;;;;;;;;;;;;16.78;46.78;95972.19;10540603;28;1100;-51
2022/11/06 03:26:37;;;;;;;;;;;;;;;16.77;46.91;95961.97;10538568;28;1969;-47
2022/11/06 03:31:39;;;;;;;;;;;;;;;16.75;46.96;95969.28;10541326;28;1148;-51
2022/11/06 03:36:41;;;;;;;;;;;;;;;16.77;47.00;95977.69;10540696;28;1508;-49
2022/11/06 03:41:47;;;;;;;;;;;;;;;16.75;47.00;95979.75;10547420;28;1643;-47
2022/11/06 03:46:48;;;;;;;;;;;;;;;16.73;47.02;95972.13;10543623;28;1906;-51
2022/11/06 03:51:51;;;;;;;;;;;;;;;16.75;46.86;95969.28;10532028;28;1537;-54
2022/11/06 03:57:04;;;;;;;;;;;;;;;16.77;46.86;95977.69;10538073;28;1619;-53
2022/11/06 04:02:06;;;;;;;;;;;;;;;16.73;46.93;95977.38;10538048;28;1148;-47
2022/11/06 04:07:12;;;;;;;;;;;;;;;16.71;46.95;95963.72;10538649;28;1897;-53
2022/11/06 04:17:31;;;;;;;;;;;;;;;16.75;46.88;95958.81;10536017;28;1734;-52
2022/11/06 04:22:50;;;;;;;;;;;;;;;16.69;47.02;95960.56;10537499;28;1119;-51
2022/11/06 04:28:09;;;;;;;;;;;;;;;16.73;46.88;95956.41;10530298;28;1964;-53
2022/11/06 04:33:12;;;;;;;;;;;;;;;16.69;46.97;95963.19;10533864;28;1475;-50
2022/11/06 04:38:21;;;;;;;;;;;;;;;16.73;46.89;95950.41;10534947;28;2126;-53
2022/11/06 04:43:28;;;;;;;;;;;;;;;16.73;46.81;95950.41;10531299;28;1081;-49
2022/11/06 04:48:29;;;;;;;;;;;;;;;16.70;46.96;95940.41;10532553;28;1910;-51
2022/11/06 04:53:29;;;;;;;;;;;;;;;16.69;46.90;95937.00;10537311;28;1155;-50
2022/11/06 04:58:30;;;;;;;;;;;;;;;16.72;46.81;95935.72;10532734;28;1702;-52
2022/11/06 05:03:30;;;;;;;;;;;;;;;16.70;46.77;95929.94;10541172;28;1536;-52
2022/11/06 05:08:30;;;;;;;;;;;;;;;16.69;46.89;95936.25;10527960;28;1965;-53
2022/11/06 05:13:30;;;;;;;;;;;;;;;16.70;46.81;95932.56;10537185;28;1164;-51
2022/11/06 05:18:31;;;;;;;;;;;;;;;16.68;46.91;95926.78;10532896;28;1612;-52
2022/11/06 05:23:31;;;;;;;;;;;;;;;16.69;46.77;95933.63;10536706;28;1203;-50
2022/11/06 05:28:31;;;;;;;;;;;;;;;16.68;46.78;95916.31;10530784;28;1957;-52
2022/11/06 05:33:32;;;;;;;;;;;;;;;16.66;46.92;95910.53;10536536;28;1153;-53
2022/11/06 05:38:32;;;;;;;;;;;;;;;16.66;47.00;95905.31;10528319;28;1651;-53
2022/11/06 05:43:32;;;;;;;;;;;;;;;16.66;46.87;95913.16;10536270;28;1192;-53
2022/11/06 05:48:32;;;;;;;;;;;;;;;16.68;46.76;95921.56;10536484;28;1965;-55
2022/11/06 05:53:33;;;;;;;;;;;;;;;16.66;46.81;95918.38;10536141;28;1067;-51
2022/11/06 05:58:33;;;;;;;;;;;;;;;16.65;46.80;95906.34;10528729;28;1647;-53
2022/11/06 06:03:34;;;;;;;;;;;;;;;16.69;46.68;95902.97;10535536;28;1182;-53
2022/11/06 06:08:34;;;;;;;;;;;;;;;16.65;46.58;95901.88;10528986;28;1902;-53
2022/11/06 06:13:35;;;;;;;;;;;;;;;16.67;46.69;95893.81;10534984;28;1046;-50
2022/11/06 06:18:35;;;;;;;;;;;;;;;16.66;46.71;95884.38;10535323;28;1560;-51
2022/11/06 06:23:35;;;;;;;;;;;;;;;16.66;46.62;95886.97;10535722;28;1144;-49
2022/11/06 06:28:36;;;;;;;;;;;;;;;16.65;46.71;95880.19;10538546;28;1961;-53
2022/11/06 06:33:36;;;;;;;;;;;;;;;16.64;46.80;95873.34;10543454;28;1156;-51
2022/11/06 06:38:36;;;;;;;;;;;;;;;16.63;46.66;95869.16;10532332;28;1548;-53
2022/11/06 06:43:37;;;;;;;;;;;;;;;16.62;46.74;95871.00;10534171;28;1121;-53
2022/11/06 06:48:37;;;;;;;;;;;;;;;16.66;46.63;95873.91;10531516;28;1878;-51
2022/11/06 06:53:38;;;;;;;;;;;;;;;16.65;46.68;95872.34;10534030;28;864;-54
2022/11/06 06:58:38;;;;;;;;;;;;;;;16.69;46.58;95861.09;10531734;28;1631;-51
2022/11/06 07:03:38;;;;;;;;;;;;;;;16.64;46.74;95871.53;10533622;28;1109;-51
2022/11/06 07:08:38;;;;;;;;;;;;;;;16.66;46.72;95863.44;10526597;28;1906;-51
2022/11/06 07:13:39;;;;;;;;;;;;;;;16.62;46.78;95873.59;10533546;28;1101;-52
2022/11/06 07:18:39;;;;;;;;;;;;;;;16.70;46.69;95882.84;10527353;28;1640;-54
2022/11/06 07:23:40;;;;;;;;;;;;;;;16.70;46.55;95882.84;10532679;28;1131;-50
2022/11/06 07:28:40;;;;;;;;;;;;;;;16.72;46.60;95888.63;10531269;28;2028;-50
2022/11/06 07:33:40;;;;;;;;;;;;;;;16.69;46.51;95902.97;10534357;28;1207;-50
2022/11/06 07:38:41;;;;;;;;;;;;;;;16.65;46.72;95903.75;10531079;28;1742;-51
2022/11/06 07:43:41;;;;;;;;;;;;;;;16.63;46.77;95895.34;10539336;28;1112;-53
2022/11/06 07:48:41;;;;;;;;;;;;;;;16.61;46.90;95894.78;10535344;28;1993;-49
2022/11/06 07:53:46;;;;;;;;;;;;;;;16.61;46.86;95900.03;10539697;28;877;-51
2022/11/06 07:58:47;;;;;;;;;;;;;;;16.60;47.04;95885.34;10538482;28;1706;-49
2022/11/06 08:03:47;;;;;;;;;;;;;;;16.59;47.04;95876.69;10537465;28;1627;-49
2022/11/06 08:08:47;;;;;;;;;;;;;;;16.58;47.00;95874.34;10538529;28;1902;-48
2022/11/06 08:13:47;;;;;;;;;;;;;;;16.61;46.92;95860.78;10544020;28;1124;-48
2022/11/06 08:18:48;;;;;;;;;;;;;;;16.62;46.99;95842.19;10536130;28;1674;-53
2022/11/06 08:23:48;;;;;;;;;;;;;;;16.66;46.80;95839.88;10540919;28;916;-53
2022/11/06 08:28:48;;;;;;;;;;;;;;;16.71;46.63;95830.25;10532698;28;1972;-49
2022/11/06 08:33:48;;;;;;;;;;;;;;;16.76;46.47;95832.13;10538797;28;1215;-50
2022/11/06 08:38:49;;;;;;;;;;;;;;;16.76;46.52;95840.78;10528503;28;1596;-51
2022/11/06 08:43:52;;;;;;;;;;;;;;;16.77;46.57;95831.09;10538236;28;1165;-53
2022/11/06 08:48:52;;;;;;;;;;;;;;;16.84;46.33;95822.00;10532281;28;1975;-52
2022/11/06 08:53:52;;;;;;;;;;;;;;;16.83;46.44;95822.25;10538108;28;1717;-51
2022/11/06 08:58:52;;;;;;;;;;;;;;;16.84;46.54;95822.00;10537449;28;1619;-47
2022/11/06 09:03:53;;;;;;;;;;;;;;;16.82;46.51;95805.75;10537622;28;1262;-52
2022/11/06 09:08:54;;;;;;;;;;;;;;;16.82;46.54;95786.63;10534106;28;1894;-52
2022/11/06 09:13:54;;;;;;;;;;;;;;;16.87;46.42;95778.81;10537796;28;1144;-51
2022/11/06 09:18:55;;;;;;;;;;;;;;;16.86;46.41;95782.47;10533292;28;1654;-54
2022/11/06 09:23:55;;;;;;;;;;;;;;;16.83;46.55;95770.69;10536734;28;935;-50
2022/11/06 09:28:55;;;;;;;;;;;;;;;16.85;46.49;95754.72;10529154;28;1977;-52
2022/11/06 09:33:56;;;;;;;;;;;;;;;16.86;46.53;95751.84;10531249;28;1437;-52
2022/11/06 09:38:56;;;;;;;;;;;;;;;16.86;46.31;95732.72;10531993;28;1707;-49
2022/11/06 09:43:57;;;;;;;;;;;;;;;16.86;46.36;95719.63;10535938;28;1096;-50
2022/11/06 09:48:57;;;;;;;;;;;;;;;16.86;46.33;95711.78;10530465;28;1967;-50
2022/11/06 09:54:02;;;;;;;;;;;;;;;16.88;46.44;95707.09;10535205;28;1858;-54
2022/11/06 09:59:02;;;;;;;;;;;;;;;16.85;46.41;95702.38;10533372;28;1611;-51
2022/11/06 10:04:03;;;;;;;;;;;;;;;16.86;46.48;95702.09;10533878;28;1116;-52
2022/11/06 10:09:04;;;;;;;;;;;;;;;16.85;46.49;95705.78;10525036;28;1906;-51
2022/11/06 10:14:18;;;;;;;;;;;;;;;16.88;46.41;95691.38;10534580;28;1104;-53
2022/11/06 10:19:31;;;;;;;;;;;;;;;16.90;46.59;95670.97;10532662;28;1690;-53
2022/11/06 10:24:32;;;;;;;;;;;;;;;16.89;46.58;95656.31;10528516;28;1647;-50
2022/11/06 10:29:33;;;;;;;;;;;;;;;16.84;46.80;95643.19;10534632;28;1967;-52
2022/11/06 10:34:34;;;;;;;;;;;;;;;16.86;46.79;95636.66;10534377;28;1448;-51
2022/11/06 10:39:35;;;;;;;;;;;;;;;16.90;46.75;95631.69;10531046;28;1382;-51
2022/11/06 10:44:36;;;;;;;;;;;;;;;16.91;46.73;95628.06;10535390;28;1104;-52
2022/11/06 10:49:39;;;;;;;;;;;;;;;17.00;46.69;95610.84;10531271;28;1914;-52
2022/11/06 10:54:44;;;;;;;;;;;;;;;16.96;46.75;95599.28;10535813;28;1108;-49
2022/11/06 10:59:44;;;;;;;;;;;;;;;16.89;46.99;95596.09;10528303;28;1643;-53
2022/11/06 11:04:44;;;;;;;;;;;;;;;16.84;47.05;95581.16;10534018;28;931;-54
2022/11/06 11:09:48;;;;;;;;;;;;;;;16.92;47.00;95566.78;10527017;28;1910;-50
2022/11/06 11:15:03;;;;;;;;;;;;;;;16.85;47.02;95545.28;10541978;28;1116;-47
2022/11/06 11:20:14;;;;;;;;;;;;;;;16.86;47.02;95520.69;10533259;28;1694;-52
2022/11/06 11:25:34;;;;;;;;;;;;;;;16.84;47.27;95526.19;10527393;28;916;-51
2022/11/06 11:30:34;;;;;;;;;;;;;;;16.91;47.06;95512.84;10536864;28;1165;-53
2022/11/06 11:35:37;;;;;;;;;;;;;;;16.97;47.04;95507.38;10533040;28;1457;-54
2022/11/06 11:40:37;;;;;;;;;;;;;;;17.02;46.93;95509.25;10538786;28;1548;-54
2022/11/06 11:45:37;;;;;;;;;;;;;;;17.06;46.74;95510.31;10539666;28;1913;-53
2022/11/06 11:50:38;;;;;;;;;;;;;;;17.11;46.74;95499.84;10537299;28;1635;-51
2022/11/06 11:55:39;;;;;;;;;;;;;;;17.08;46.89;95485.41;10538852;28;785;-50
2022/11/06 12:00:45;;;;;;;;;;;;;;;17.08;46.99;95489.88;10533957;28;1773;-51
2022/11/06 12:05:46;;;;;;;;;;;;;;;17.06;47.02;95473.66;10531410;28;1918;-54
2022/11/06 12:10:46;;;;;;;;;;;;;;;17.14;46.87;95462.66;10537133;28;1433;-51
2022/11/06 12:15:50;;;;;;;;;;;;;;;17.09;47.03;95462.66;10539838;28;738;-53
2022/11/06 12:20:54;;;;;;;;;;;;;;;17.14;47.05;95464.50;10533600;28;1657;-50
2022/11/06 12:26:05;;;;;;;;;;;;;;;17.12;47.00;95467.38;10538874;28;1913;-50
2022/11/06 12:31:08;;;;;;;;;;;;;;;17.16;46.91;95470.25;10536672;28;1074;-49
2022/11/06 12:36:10;;;;;;;;;;;;;;;17.15;47.25;95455.56;10534431;28;1409;-51
2022/11/06 12:41:30;;;;;;;;;;;;;;;17.08;47.39;95451.38;10568424;27;1543;-53
2022/11/06 12:46:30;;;;;;;;;;;;;;;17.11;47.46;95465.78;10530608;28;1909;-52
2022/11/06 12:51:49;;;;;;;;;;;;;;;17.26;47.03;95462.41;10537357;28;1116;-51
2022/11/06 12:56:57;;;;;;;;;;;;;;;17.42;46.86;95456.94;10528405;28;1615;-53
2022/11/06 13:02:08;;;;;;;;;;;;;;;17.69;46.40;95462.78;10536988;28;1097;-50
2022/11/06 13:07:28;;;;;;;;;;;;;;;17.79;46.19;95475.88;10533660;28;1898;-52
2022/11/06 13:12:31;;;;;;;;;;;;;;;17.84;46.24;95457.53;10533056;28;1635;-54
2022/11/06 13:17:41;;;;;;;;;;;;;;;17.71;46.41;95434.47;10533454;28;1531;-49
2022/11/06 13:22:47;;;;;;;;;;;;;;;17.60;46.75;95421.59;10536855;28;1147;-54
2022/11/06 13:28:10;;;;;;;;;;;;;;;17.54;46.83;95407.72;10534820;28;1914;-51
2022/11/06 13:33:15;;;;;;;;;;;;;;;17.50;47.00;95393.56;10535905;28;1985;-50
2022/11/06 13:38:17;;;;;;;;;;;;;;;17.41;47.07;95391.72;10530180;28;1607;-53
2022/11/06 13:43:18;;;;;;;;;;;;;;;17.41;47.26;95389.88;10542242;28;1283;-51
2022/11/06 13:48:24;;;;;;;;;;;;;;;17.48;47.27;95377.28;10539811;28;1975;-51
2022/11/06 13:53:27;;;;;;;;;;;;;;;17.60;46.95;95359.50;10534723;28;889;-53
2022/11/06 13:58:33;;;;;;;;;;;;;;;17.57;46.85;95340.91;10529308;28;1607;-50
2022/11/06 14:03:52;;;;;;;;;;;;;;;17.51;47.07;95344.56;10532272;28;1548;-51
2022/11/06 14:08:53;;;;;;;;;;;;;;;17.46;46.87;95329.59;10530788;28;1913;-55
2022/11/06 14:13:54;;;;;;;;;;;;;;;17.35;47.05;95330.66;10534112;28;1306;-51
2022/11/06 14:18:55;;;;;;;;;;;;;;;17.28;47.16;95331.97;10508467;28;1657;-52
2022/11/06 14:24:05;;;;;;;;;;;;;;;17.24;47.24;95336.16;10532516;28;1472;-52
2022/11/06 14:29:24;;;;;;;;;;;;;;;17.20;47.06;95341.16;10532358;28;1902;-53
2022/11/06 14:34:31;;;;;;;;;;;;;;;17.17;47.18;95346.91;10535059;28;1391;-54
2022/11/06 14:39:50;;;;;;;;;;;;;;;17.15;47.17;95343.75;10533315;28;1623;-51
2022/11/06 14:44:54;;;;;;;;;;;;;;;17.18;47.09;95351.09;10539653;28;1226;-50
2022/11/06 14:49:56;;;;;;;;;;;;;;;17.12;47.36;95352.16;10539053;28;1965;-52
2022/11/06 14:55:01;;;;;;;;;;;;;;;17.05;47.49;95355.00;10540019;28;1580;-53
2022/11/06 15:00:05;;;;;;;;;;;;;;;17.05;47.47;95351.59;10571712;27;1171;-50
2022/11/06 15:05:13;;;;;;;;;;;;;;;16.99;47.49;95336.94;10535064;28;1643;-53
2022/11/06 15:10:32;;;;;;;;;;;;;;;17.00;47.54;95325.44;10540348;28;1901;-52
2022/11/06 15:15:33;;;;;;;;;;;;;;;17.01;47.55;95319.94;10500016;28;837;-52
2022/11/06 15:20:33;;;;;;;;;;;;;;;16.92;47.65;95321.47;10517312;28;1659;-53
2022/11/06 15:25:33;;;;;;;;;;;;;;;16.96;47.54;95319.91;10538711;28;1611;-53
2022/11/06 15:31:00;;;;;;;;;;;;;;;17.01;47.46;95308.66;10537850;28;1918;-52
2022/11/06 15:36:01;;;;;;;;;;;;;;;17.01;47.39;95298.97;10534483;28;1433;-53
2022/11/06 15:41:01;;;;;;;;;;;;;;;17.03;47.29;95306.56;10536294;28;1405;-54
2022/11/06 15:46:02;;;;;;;;;;;;;;;17.04;47.26;95318.63;10539474;28;1906;-52
2022/11/06 15:51:17;;;;;;;;;;;;;;;17.03;47.27;95330.13;10540082;28;1650;-48
2022/11/06 15:56:19;;;;;;;;;;;;;;;16.99;47.29;95326.47;10539060;28;881;-52
2022/11/06 16:01:21;;;;;;;;;;;;;;;17.02;47.22;95321.47;10539205;28;1646;-51
2022/11/06 16:06:21;;;;;;;;;;;;;;;16.98;47.38;95324.91;10529792;28;1914;-52
2022/11/06 16:11:22;;;;;;;;;;;;;;;17.00;47.22;95331.44;10536581;28;1439;-54
2022/11/06 16:16:41;;;;;;;;;;;;;;;16.99;47.24;95326.47;10540994;28;1603;-49
2022/11/06 16:21:46;;;;;;;;;;;;;;;16.97;47.31;95331.16;10536491;28;1038;-53
2022/11/06 16:26:48;;;;;;;;;;;;;;;16.96;47.24;95333.00;10537966;28;1910;-50
2022/11/06 16:31:56;;;;;;;;;;;;;;;16.97;47.24;95337.19;10545041;28;1096;-50
2022/11/06 16:37:00;;;;;;;;;;;;;;;16.96;47.27;95327.75;10523532;28;1576;-53
2022/11/06 16:42:12;;;;;;;;;;;;;;;16.99;47.17;95334.31;10534763;28;1666;-51
2022/11/06 16:47:18;;;;;;;;;;;;;;;16.93;47.27;95348.44;10531496;28;1977;-51
2022/11/06 16:52:26;;;;;;;;;;;;;;;16.96;47.24;95337.47;10535808;28;2605;-49
2022/11/06 16:57:27;;;;;;;;;;;;;;;16.92;47.29;95341.63;10534365;28;1627;-49
2022/11/06 17:02:28;;;;;;;;;;;;;;;16.90;47.25;95347.13;10537136;28;1093;-53
2022/11/06 17:07:29;;;;;;;;;;;;;;;16.86;47.34;95353.94;10531133;28;1906;-50
2022/11/06 17:12:29;;;;;;;;;;;;;;;16.94;47.14;95347.38;10534144;28;1544;-52
2022/11/06 17:17:30;;;;;;;;;;;;;;;16.92;47.32;95362.56;10535774;28;1683;-52
2022/11/06 17:22:30;;;;;;;;;;;;;;;16.92;47.20;95357.34;10536565;28;1124;-53
2022/11/06 17:27:30;;;;;;;;;;;;;;;16.89;47.37;95358.66;10534107;28;1906;-50
2022/11/06 17:32:30;;;;;;;;;;;;;;;16.89;47.18;95360.50;10535884;28;1104;-49
2022/11/06 17:37:31;;;;;;;;;;;;;;;16.93;47.05;95362.34;10532521;28;1639;-53
2022/11/06 17:42:31;;;;;;;;;;;;;;;16.82;47.31;95365.16;10533057;28;1584;-53
2022/11/06 17:47:31;;;;;;;;;;;;;;;16.82;47.25;95358.13;10539146;28;1975;-49
2022/11/06 17:52:32;;;;;;;;;;;;;;;16.87;47.23;95362.56;10536890;28;1017;-52
2022/11/06 17:57:32;;;;;;;;;;;;;;;16.87;47.23;95366.00;10527170;28;1607;-50
2022/11/06 18:02:32;;;;;;;;;;;;;;;16.90;47.07;95369.91;10535988;28;1124;-49
2022/11/06 18:07:33;;;;;;;;;;;;;;;16.92;47.03;95373.84;10527952;28;1914;-53
2022/11/06 18:12:35;;;;;;;;;;;;;;;16.86;47.17;95374.88;10531881;28;2194;-51
2022/11/06 18:17:36;;;;;;;;;;;;;;;16.90;47.15;95375.94;10535124;28;1572;-52
2022/11/06 18:22:36;;;;;;;;;;;;;;;16.83;47.17;95385.88;10530780;28;1137;-51
2022/11/06 18:27:37;;;;;;;;;;;;;;;16.85;47.26;95378.56;10529424;28;1902;-47
2022/11/06 18:32:37;;;;;;;;;;;;;;;16.86;47.25;95376.69;10537474;28;1108;-50
2022/11/06 18:37:37;;;;;;;;;;;;;;;16.85;47.12;95380.38;10535262;28;1694;-51
2022/11/06 18:42:38;;;;;;;;;;;;;;;16.86;47.12;95381.94;10534501;28;1623;-52
2022/11/06 18:47:39;;;;;;;;;;;;;;;16.84;47.24;95384.03;10531845;28;1910;-54
2022/11/06 18:52:39;;;;;;;;;;;;;;;16.85;47.19;95388.22;10529247;28;1216;-50
2022/11/06 18:57:39;;;;;;;;;;;;;;;16.82;47.19;95388.72;10533420;28;1726;-51
2022/11/06 19:02:40;;;;;;;;;;;;;;;16.82;47.05;95386.91;10536370;28;1105;-48
2022/11/06 19:07:40;;;;;;;;;;;;;;;16.83;47.17;95387.69;10531991;28;1969;-51
2022/11/06 19:12:41;;;;;;;;;;;;;;;16.85;47.04;95398.69;10538140;28;1666;-52
2022/11/06 19:17:41;;;;;;;;;;;;;;;16.83;47.13;95395.56;10529793;28;1607;-50
2022/11/06 19:22:41;;;;;;;;;;;;;;;16.82;47.13;95404.44;10539229;28;1108;-49
2022/11/06 19:27:41;;;;;;;;;;;;;;;16.86;46.95;95397.63;10535123;28;1913;-51
2022/11/06 19:32:42;;;;;;;;;;;;;;;16.79;47.24;95405.75;10544165;28;1128;-54
2022/11/06 19:37:43;;;;;;;;;;;;;;;16.82;47.11;95414.91;10540389;28;1678;-52
2022/11/06 19:42:43;;;;;;;;;;;;;;;16.84;46.97;95418.06;10544137;28;1619;-53
2022/11/06 19:47:43;;;;;;;;;;;;;;;16.82;47.08;95417.53;10543158;28;1906;-51
2022/11/06 19:52:47;;;;;;;;;;;;;;;16.82;47.12;95420.13;10540733;28;1163;-54
2022/11/06 19:57:48;;;;;;;;;;;;;;;16.78;47.13;95430.34;10543924;28;1422;-50
2022/11/06 20:02:49;;;;;;;;;;;;;;;16.82;47.15;95431.41;10545572;28;1085;-51
2022/11/06 20:07:49;;;;;;;;;;;;;;;16.80;47.16;95427.47;10540100;28;1949;-50
2022/11/06 20:12:50;;;;;;;;;;;;;;;16.82;47.06;95451.56;10539938;28;1698;-52
2022/11/06 20:17:50;;;;;;;;;;;;;;;16.82;47.07;95451.56;10531885;28;1627;-52
2022/11/06 20:22:50;;;;;;;;;;;;;;;16.80;47.17;95453.63;10539378;28;1741;-52
2022/11/06 20:27:51;;;;;;;;;;;;;;;16.79;47.08;95449.47;10532548;28;1909;-53
2022/11/06 20:32:51;;;;;;;;;;;;;;;16.76;47.16;95463.84;10540573;28;1176;-51
2022/11/06 20:37:51;;;;;;;;;;;;;;;16.75;47.12;95471.97;10538746;28;1690;-52
2022/11/06 20:42:52;;;;;;;;;;;;;;;16.75;47.12;95474.56;10535075;28;1793;-52
2022/11/06 20:47:52;;;;;;;;;;;;;;;16.78;47.07;95471.44;10536812;28;1914;-52
2022/11/06 20:52:52;;;;;;;;;;;;;;;16.74;47.15;95471.16;10536748;28;1630;-54
2022/11/06 20:57:52;;;;;;;;;;;;;;;16.78;47.01;95468.81;10538237;28;1469;-53
2022/11/06 21:02:53;;;;;;;;;;;;;;;16.74;47.03;95471.16;10546637;28;1136;-54
2022/11/06 21:07:53;;;;;;;;;;;;;;;16.72;47.23;95473.25;10530294;28;1968;-53
2022/11/06 21:12:55;;;;;;;;;;;;;;;16.76;47.04;95476.13;10537334;28;1659;-54
2022/11/06 21:17:55;;;;;;;;;;;;;;;16.78;47.06;95484.53;10533845;28;1591;-54
2022/11/06 21:22:55;;;;;;;;;;;;;;;16.73;47.27;95495.75;10534410;28;1105;-52
2022/11/06 21:27:56;;;;;;;;;;;;;;;16.74;47.19;95496.53;10528545;28;1902;-53
2022/11/06 21:32:56;;;;;;;;;;;;;;;16.74;47.25;95501.78;10535530;28;1116;-51
2022/11/06 21:37:56;;;;;;;;;;;;;;;16.74;47.24;95501.78;10533897;28;1655;-50
2022/11/06 21:42:57;;;;;;;;;;;;;;;16.71;47.12;95512.78;10535396;28;1647;-51
2022/11/06 21:47:57;;;;;;;;;;;;;;;16.73;47.34;95515.91;10534554;28;1969;-51
2022/11/06 21:58:16;;;;;;;;;;;;;;;16.72;47.12;95536.06;10536108;28;1675;-49
2022/11/06 22:03:17;;;;;;;;;;;;;;;16.75;47.03;95550.47;10544136;28;1280;-52
2022/11/06 22:08:17;;;;;;;;;;;;;;;16.73;47.06;95542.88;10541425;28;1878;-48
2022/11/06 22:13:18;;;;;;;;;;;;;;;16.68;47.16;95545.47;10531674;28;1068;-50
2022/11/06 22:18:18;;;;;;;;;;;;;;;16.73;47.14;95558.56;10537761;28;1804;-50
2022/11/06 22:23:18;;;;;;;;;;;;;;;16.75;47.07;95571.41;10541110;28;1073;-50
2022/11/06 22:28:18;;;;;;;;;;;;;;;16.76;47.03;95565.13;10533818;28;1935;-48
2022/11/06 22:33:19;;;;;;;;;;;;;;;16.73;47.04;95566.41;10534526;28;1108;-52
2022/11/06 22:38:20;;;;;;;;;;;;;;;16.77;46.75;95558.88;10531764;28;1595;-50
2022/11/06 22:43:20;;;;;;;;;;;;;;;16.72;47.11;95561.44;10535240;28;1175;-53
2022/11/06 22:48:20;;;;;;;;;;;;;;;16.74;46.90;95565.38;10533962;28;1963;-53
2022/11/06 22:53:20;;;;;;;;;;;;;;;16.70;46.92;95569.56;10534150;28;1096;-50
2022/11/06 22:58:21;;;;;;;;;;;;;;;16.67;47.08;95569.28;10532866;28;1615;-53
2022/11/06 23:03:21;;;;;;;;;;;;;;;16.69;47.05;95567.19;10533828;28;1096;-52
2022/11/06 23:08:21;;;;;;;;;;;;;;;16.65;47.11;95566.13;10533739;28;1981;-52
2022/11/06 23:13:22;;;;;;;;;;;;;;;16.66;47.07;95565.88;10542581;28;1184;-53
2022/11/06 23:18:22;;;;;;;;;;;;;;;16.62;47.16;95564.00;10540569;28;1670;-54
2022/11/06 23:23:22;;;;;;;;;;;;;;;16.64;47.18;95569.78;10541306;28;1136;-53
2022/11/06 23:28:22;;;;;;;;;;;;;;;16.66;46.94;95575.53;10536848;28;1977;-53
2022/11/06 23:33:23;;;;;;;;;;;;;;;16.68;47.02;95578.69;10541406;28;1127;-52
2022/11/06 23:38:23;;;;;;;;;;;;;;;16.66;47.04;95575.53;10532039;28;1615;-51
2022/11/06 23:43:23;;;;;;;;;;;;;;;16.63;47.02;95586.53;10540591;28;1055;-51
2022/11/06 23:48:24;;;;;;;;;;;;;;;16.66;47.02;95593.88;10537846;28;1971;-52
2022/11/06 23:53:24;;;;;;;;;;;;;;;16.62;47.11;95590.16;10541065;28;1111;-53
2022/11/06 23:58:24;;;;;;;;;;;;;;;16.61;47.17;95596.47;10535913;28;1643;-52
